Time;durP1;ratioP1;P1;durP2;ratioP2;P2;SDS_P1;SDS_P2;PMS_P1;PMS_P2;Temp;Humidity;BMP_temperature;BMP_pressure;BME280_temperature;BME280_humidity;BME280_pressure;Samples;Min_cycle;Max_cycle;Signal;HPM_P1;HPM_P2
2022/10/11 00:01:40;;;;;;;;;;;;;;;13.11;67.01;101523.91;4927941;28;119527;-76
2022/10/11 00:04:05;;;;;;;;;;;;;;;13.08;67.06;101531.06;4919754;28;119554;-75
2022/10/11 00:06:31;;;;;;;;;;;;;;;13.06;66.71;101538.25;4926336;28;121968;-75
2022/10/11 00:08:56;;;;;;;;;;;;;;;13.05;66.65;101531.22;4929764;28;119319;-76
2022/10/11 00:11:22;;;;;;;;;;;;;;;13.02;66.51;101537.59;4933553;28;120074;-76
2022/10/11 00:13:48;;;;;;;;;;;;;;;13.00;67.17;101546.28;4930061;28;119848;-75
2022/10/11 00:16:14;;;;;;;;;;;;;;;13.00;67.05;101548.28;4930532;28;119484;-75
2022/10/11 00:18:40;;;;;;;;;;;;;;;12.97;66.95;101544.44;4929511;28;120204;-75
2022/10/11 00:21:10;;;;;;;;;;;;;;;12.94;66.57;101547.31;4932303;28;120454;-75
2022/10/11 00:23:36;;;;;;;;;;;;;;;12.90;66.63;101550.97;4925804;28;119516;-75
2022/10/11 00:26:04;;;;;;;;;;;;;;;12.87;66.78;101551.84;4930181;28;119724;-75
2022/10/11 00:28:29;;;;;;;;;;;;;;;12.87;66.52;101562.88;4927348;28;119409;-76
2022/10/11 00:30:55;;;;;;;;;;;;;;;12.84;67.01;101561.00;4932646;28;119334;-76
2022/10/11 00:33:21;;;;;;;;;;;;;;;12.84;66.68;101560.25;4933988;28;119852;-76
2022/10/11 00:35:47;;;;;;;;;;;;;;;12.82;66.86;101563.44;4910481;28;119826;-76
2022/10/11 00:38:13;;;;;;;;;;;;;;;12.81;67.03;101561.91;4932122;28;120402;-76
2022/10/11 00:40:39;;;;;;;;;;;;;;;12.82;67.12;101570.94;4931837;28;119389;-75
2022/10/11 00:43:12;;;;;;;;;;;;;;;12.81;67.08;101561.91;4897742;28;121520;-75
2022/10/11 00:45:38;;;;;;;;;;;;;;;12.80;67.06;101571.38;4929807;28;119474;-76
2022/10/11 00:48:13;;;;;;;;;;;;;;;12.79;67.00;101558.81;4930604;28;119465;-76
2022/10/11 00:50:40;;;;;;;;;;;;;;;12.79;66.70;101569.06;4931436;28;119758;-75
2022/10/11 00:53:10;;;;;;;;;;;;;;;12.76;66.58;101570.69;4908556;28;120744;-76
2022/10/11 00:55:37;;;;;;;;;;;;;;;12.74;66.89;101570.38;4935535;28;119963;-75
2022/10/11 00:58:03;;;;;;;;;;;;;;;12.72;66.66;101570.03;4928241;28;120082;-76
2022/10/11 01:00:29;;;;;;;;;;;;;;;12.71;66.61;101573.25;4930607;28;119858;-75
2022/10/11 01:02:55;;;;;;;;;;;;;;;12.68;66.67;101569.41;4928803;28;120344;-76
2022/10/11 01:05:20;;;;;;;;;;;;;;;12.65;66.85;101567.53;4928319;28;119515;-75
2022/10/11 01:07:52;;;;;;;;;;;;;;;12.62;66.73;101568.44;4929340;28;119917;-76
2022/10/11 01:10:38;;;;;;;;;;;;;;;12.57;66.39;101572.50;4918092;28;120039;-75
2022/10/11 01:13:24;;;;;;;;;;;;;;;12.54;66.57;101575.38;4927886;28;120857;-74
2022/10/11 01:15:56;;;;;;;;;;;;;;;12.51;66.50;101585.25;4934129;28;119998;-74
2022/10/11 01:18:30;;;;;;;;;;;;;;;12.48;66.39;101583.41;4941294;28;119243;-75
2022/10/11 01:20:59;;;;;;;;;;;;;;;12.45;66.42;101595.28;4914000;28;119901;-75
2022/10/11 01:23:38;;;;;;;;;;;;;;;12.42;66.35;101595.41;4930233;28;119858;-75
2022/10/11 01:26:22;;;;;;;;;;;;;;;12.38;66.50;101589.25;4929580;28;119588;-75
2022/10/11 01:28:54;;;;;;;;;;;;;;;12.41;67.05;101602.88;4929603;28;119344;-75
2022/10/11 01:31:25;;;;;;;;;;;;;;;12.46;66.97;101604.31;4930504;28;120562;-76
2022/10/11 01:33:54;;;;;;;;;;;;;;;12.51;67.03;101607.28;4930332;28;119526;-76
2022/10/11 01:36:26;;;;;;;;;;;;;;;12.56;67.40;101606.75;4924238;28;119389;-76
2022/10/11 01:39:03;;;;;;;;;;;;;;;12.60;67.48;101598.38;4924794;28;119435;-76
2022/10/11 01:41:35;;;;;;;;;;;;;;;12.64;67.50;101603.75;4921950;28;120381;-75
2022/10/11 01:44:01;;;;;;;;;;;;;;;12.67;67.12;101605.63;4930066;28;119332;-76
2022/10/11 01:46:28;;;;;;;;;;;;;;;12.68;67.12;101605.19;4929285;28;119277;-76
2022/10/11 01:48:55;;;;;;;;;;;;;;;12.68;67.26;101602.44;4929653;28;119262;-75
2022/10/11 01:51:23;;;;;;;;;;;;;;;12.68;67.16;101602.44;4913364;28;119961;-76
2022/10/11 01:53:52;;;;;;;;;;;;;;;12.68;66.92;101604.41;4915036;28;119946;-76
2022/10/11 01:56:24;;;;;;;;;;;;;;;12.67;66.91;101609.16;4930991;28;119739;-75
2022/10/11 01:58:59;;;;;;;;;;;;;;;12.65;66.83;101608.81;4929606;28;120171;-76
2022/10/11 02:01:25;;;;;;;;;;;;;;;12.63;66.72;101621.50;4934382;28;119768;-75
2022/10/11 02:04:22;;;;;;;;;;;;;;;12.59;66.78;101619.63;4929444;28;119650;-75
2022/10/11 02:07:00;;;;;;;;;;;;;;;12.56;66.68;101611.47;4904121;28;120048;-75
2022/10/11 02:09:40;;;;;;;;;;;;;;;12.53;66.60;101617.84;4928983;28;119916;-75
2022/10/11 02:12:09;;;;;;;;;;;;;;;12.48;66.13;101627.44;4929418;28;119454;-74
2022/10/11 02:14:38;;;;;;;;;;;;;;;12.43;66.43;101625.22;4935728;28;120108;-75
2022/10/11 02:17:07;;;;;;;;;;;;;;;12.39;66.39;101621.06;4910788;28;119549;-75
2022/10/11 02:19:39;;;;;;;;;;;;;;;12.35;66.49;101623.16;4930169;28;119716;-75
2022/10/11 02:22:06;;;;;;;;;;;;;;;12.33;66.26;101620.84;4929235;28;120963;-74
2022/10/11 02:24:33;;;;;;;;;;;;;;;12.31;66.38;101633.50;4932900;28;119966;-76
2022/10/11 02:27:01;;;;;;;;;;;;;;;12.28;66.41;101640.63;4929510;28;119698;-75
2022/10/11 02:29:30;;;;;;;;;;;;;;;12.25;66.43;101630.50;4928466;28;120065;-75
2022/10/11 02:31:57;;;;;;;;;;;;;;;12.23;66.38;101625.44;4936231;28;119579;-74
2022/10/11 02:34:37;;;;;;;;;;;;;;;12.22;66.49;101634.13;4927616;28;119294;-75
2022/10/11 02:37:03;;;;;;;;;;;;;;;12.22;66.71;101636.88;4929691;28;119902;-75
2022/10/11 02:39:50;;;;;;;;;;;;;;;12.21;66.64;101638.09;4926778;28;119754;-75
2022/10/11 02:42:19;;;;;;;;;;;;;;;12.22;66.89;101636.88;4912883;28;119739;-75
2022/10/11 02:44:58;;;;;;;;;;;;;;;12.22;66.59;101640.41;4923774;28;119772;-75
2022/10/11 02:47:24;;;;;;;;;;;;;;;12.23;66.82;101636.44;4926595;28;120777;-74
2022/10/11 02:49:50;;;;;;;;;;;;;;;12.23;66.91;101636.44;4928907;28;119845;-77
2022/10/11 02:52:16;;;;;;;;;;;;;;;12.22;66.51;101631.38;4921237;28;119903;-76
2022/10/11 02:54:41;;;;;;;;;;;;;;;12.21;66.34;101638.09;4928433;28;119569;-76
2022/10/11 02:57:07;;;;;;;;;;;;;;;12.20;66.52;101637.31;4929174;28;119521;-76
2022/10/11 02:59:32;;;;;;;;;;;;;;;12.21;66.70;101638.09;4925090;28;119951;-76
2022/10/11 03:01:58;;;;;;;;;;;;;;;12.22;66.86;101645.13;4927695;28;120749;-74
2022/10/11 03:04:23;;;;;;;;;;;;;;;12.22;66.82;101636.88;4909760;28;119928;-75
2022/10/11 03:06:49;;;;;;;;;;;;;;;12.21;66.94;101641.59;4928499;28;120653;-75
2022/10/11 03:09:14;;;;;;;;;;;;;;;12.22;66.82;101647.88;4930337;28;119850;-76
2022/10/11 03:11:40;;;;;;;;;;;;;;;12.21;66.54;101649.84;4929753;28;119527;-75
2022/10/11 03:14:05;;;;;;;;;;;;;;;12.22;66.77;101658.88;4927413;28;120575;-75
2022/10/11 03:16:31;;;;;;;;;;;;;;;12.22;66.81;101665.16;4927977;28;119429;-75
2022/10/11 03:18:57;;;;;;;;;;;;;;;12.20;66.59;101659.31;4923177;28;120229;-74
2022/10/11 03:21:24;;;;;;;;;;;;;;;12.21;66.72;101663.63;4927400;28;119698;-75
2022/10/11 03:23:49;;;;;;;;;;;;;;;12.22;66.50;101669.88;4929207;28;120067;-75
2022/10/11 03:26:15;;;;;;;;;;;;;;;12.21;66.48;101676.59;4930499;28;119398;-75
2022/10/11 03:28:40;;;;;;;;;;;;;;;12.19;66.85;101677.03;4927552;28;119756;-75
2022/10/11 03:31:06;;;;;;;;;;;;;;;12.17;66.52;101679.47;4913216;28;119403;-75
2022/10/11 03:33:31;;;;;;;;;;;;;;;12.16;66.58;101683.41;4927161;28;120218;-76
2022/10/11 03:35:57;;;;;;;;;;;;;;;12.19;67.01;101679.78;4925152;28;119921;-75
2022/10/11 03:38:23;;;;;;;;;;;;;;;12.20;66.84;101684.06;4909959;28;120242;-74
2022/10/11 03:40:48;;;;;;;;;;;;;;;12.23;67.06;101677.69;4910445;28;120686;-75
2022/10/11 03:43:14;;;;;;;;;;;;;;;12.25;66.83;101678.03;4928302;28;119759;-75
2022/10/11 03:45:41;;;;;;;;;;;;;;;12.27;67.06;101688.59;4914586;28;120075;-75
2022/10/11 03:48:07;;;;;;;;;;;;;;;12.29;67.08;101691.69;4931992;28;119907;-75
2022/10/11 03:50:32;;;;;;;;;;;;;;;12.33;67.13;101686.09;4914215;28;120063;-74
2022/10/11 03:52:58;;;;;;;;;;;;;;;12.35;66.95;101689.19;4944294;28;119576;-75
2022/10/11 03:55:24;;;;;;;;;;;;;;;12.37;67.09;101697.75;4932232;28;119819;-75
2022/10/11 03:57:49;;;;;;;;;;;;;;;12.37;66.84;101703.28;4932338;28;119771;-74
2022/10/11 04:00:15;;;;;;;;;;;;;;;12.39;67.14;101707.13;4928681;28;119358;-74
2022/10/11 04:02:40;;;;;;;;;;;;;;;12.42;66.88;101710.97;4930215;28;119420;-75
2022/10/11 04:05:06;;;;;;;;;;;;;;;12.44;66.91;101714.06;4927925;28;119432;-75
2022/10/11 04:07:32;;;;;;;;;;;;;;;12.46;66.87;101717.91;4931286;28;119801;-76
2022/10/11 04:10:18;;;;;;;;;;;;;;;12.48;66.86;101714.72;4929930;28;119844;-75
2022/10/11 04:12:44;;;;;;;;;;;;;;;12.49;67.08;101710.75;4934057;28;119335;-75
2022/10/11 04:15:12;;;;;;;;;;;;;;;12.52;66.59;101718.13;4927938;28;119581;-76
2022/10/11 04:17:38;;;;;;;;;;;;;;;12.52;66.89;101720.88;4923282;28;120770;-74
2022/10/11 04:20:04;;;;;;;;;;;;;;;12.52;66.51;101721.66;4928845;28;119681;-75
2022/10/11 04:22:29;;;;;;;;;;;;;;;12.52;66.92;101727.16;4931522;28;119630;-75
2022/10/11 04:24:55;;;;;;;;;;;;;;;12.53;66.56;101725.19;4931797;28;119341;-75
2022/10/11 04:27:20;;;;;;;;;;;;;;;12.54;66.60;101730.28;4929673;28;120156;-75
2022/10/11 04:29:46;;;;;;;;;;;;;;;12.57;66.50;101723.13;4930381;28;120950;-75
2022/10/11 04:32:11;;;;;;;;;;;;;;;12.59;66.77;101728.94;4930332;28;119615;-76
2022/10/11 04:34:37;;;;;;;;;;;;;;;12.63;66.85;101731.59;4934395;28;119977;-75
2022/10/11 04:37:02;;;;;;;;;;;;;;;12.68;66.93;101736.53;4931535;28;119490;-75
2022/10/11 04:39:28;;;;;;;;;;;;;;;12.72;67.03;101737.97;4928059;28;121372;-75
2022/10/11 04:41:54;;;;;;;;;;;;;;;12.77;67.00;101742.16;4926553;28;119208;-75
2022/10/11 04:44:19;;;;;;;;;;;;;;;12.82;67.05;101741.63;4924206;28;119768;-75
2022/10/11 04:46:45;;;;;;;;;;;;;;;12.87;66.83;101758.38;4927120;28;120391;-75
2022/10/11 04:49:10;;;;;;;;;;;;;;;12.93;66.87;101749.56;4925271;28;120178;-75
2022/10/11 04:51:36;;;;;;;;;;;;;;;12.97;66.67;101755.72;4926245;28;119745;-75
2022/10/11 04:54:02;;;;;;;;;;;;;;;13.01;66.91;101746.16;4927225;28;120888;-75
2022/10/11 04:56:29;;;;;;;;;;;;;;;13.03;67.02;101748.47;4935329;28;119819;-74
2022/10/11 04:58:55;;;;;;;;;;;;;;;13.04;66.61;101745.28;4928371;28;119890;-75
2022/10/11 05:01:20;;;;;;;;;;;;;;;13.03;66.83;101749.25;4931624;28;119794;-75
2022/10/11 05:03:46;;;;;;;;;;;;;;;13.04;66.55;101752.75;4929408;28;119917;-75
2022/10/11 05:06:12;;;;;;;;;;;;;;;13.03;66.83;101753.97;4913029;28;120751;-75
2022/10/11 05:08:37;;;;;;;;;;;;;;;13.04;66.88;101761.03;4925104;28;119378;-75
2022/10/11 05:11:04;;;;;;;;;;;;;;;12.99;66.71;101754.06;4931343;28;119304;-75
2022/10/11 05:13:31;;;;;;;;;;;;;;;12.97;67.19;101759.25;4930136;28;119986;-75
2022/10/11 05:15:56;;;;;;;;;;;;;;;12.95;66.98;101758.16;4930466;28;119350;-75
2022/10/11 05:18:22;;;;;;;;;;;;;;;12.93;66.85;101766.09;4933848;28;119612;-74
2022/10/11 05:20:57;;;;;;;;;;;;;;;12.90;66.70;101767.72;4931154;28;119747;-75
2022/10/11 05:23:22;;;;;;;;;;;;;;;12.87;67.18;101772.13;4929689;28;119419;-74
2022/10/11 05:25:48;;;;;;;;;;;;;;;12.87;67.43;101774.13;4930621;28;119574;-75
2022/10/11 05:28:13;;;;;;;;;;;;;;;12.88;67.21;101776.44;4930613;28;119252;-75
2022/10/11 05:30:39;;;;;;;;;;;;;;;12.90;67.44;101776.75;4931200;28;119807;-75
2022/10/11 05:33:04;;;;;;;;;;;;;;;12.89;67.08;101775.22;4931018;28;120322;-75
2022/10/11 05:35:30;;;;;;;;;;;;;;;12.88;67.32;101781.19;4925899;28;119613;-75
2022/10/11 05:37:56;;;;;;;;;;;;;;;12.85;67.18;101780.06;4925460;28;119527;-75
2022/10/11 05:40:36;;;;;;;;;;;;;;;12.83;66.97;101784.47;4932824;28;120298;-75
2022/10/11 05:43:02;;;;;;;;;;;;;;;12.80;66.97;101794.38;4911121;28;120163;-75
2022/10/11 05:45:27;;;;;;;;;;;;;;;12.78;66.62;101793.28;4928173;28;119806;-75
2022/10/11 05:47:53;;;;;;;;;;;;;;;12.77;66.56;101803.50;4922077;28;119680;-75
2022/10/11 05:50:18;;;;;;;;;;;;;;;12.75;67.08;101805.94;4912281;28;119745;-75
2022/10/11 05:52:56;;;;;;;;;;;;;;;12.72;67.04;101804.06;5003210;27;119628;-76
2022/10/11 05:55:37;;;;;;;;;;;;;;;12.69;66.76;101818.69;4992471;28;120121;-75
2022/10/11 05:58:16;;;;;;;;;;;;;;;12.65;66.80;101811.75;5008577;27;119200;-75
2022/10/11 06:00:55;;;;;;;;;;;;;;;12.65;66.92;101820.78;4985627;28;119411;-75
2022/10/11 06:03:32;;;;;;;;;;;;;;;12.66;66.73;101830.59;4999433;28;119659;-75
2022/10/11 06:06:09;;;;;;;;;;;;;;;12.67;66.94;101826.63;5015535;27;119361;-75
2022/10/11 06:08:46;;;;;;;;;;;;;;;12.66;66.89;101830.59;5048109;27;119552;-75
2022/10/11 06:11:25;;;;;;;;;;;;;;;12.67;66.90;101832.13;5009302;27;119903;-75
2022/10/11 06:14:13;;;;;;;;;;;;;;;12.67;66.95;101832.13;4996905;28;119556;-75
2022/10/11 06:17:04;;;;;;;;;;;;;;;12.67;67.22;101840.38;5042344;27;120282;-75
2022/10/11 06:19:54;;;;;;;;;;;;;;;12.67;66.77;101840.38;5026033;27;119937;-75
2022/10/11 06:22:30;;;;;;;;;;;;;;;12.67;66.69;101839.63;3913480;27;33871405;-75
2022/10/11 06:25:20;;;;;;;;;;;;;;;12.68;66.86;101844.69;5025923;27;119923;-74
2022/10/11 06:28:15;;;;;;;;;;;;;;;12.70;67.11;101853.28;5075874;27;120454;-75
2022/10/11 06:31:06;;;;;;;;;;;;;;;12.80;67.20;101868.72;5026836;27;119675;-75
2022/10/11 06:34:03;;;;;;;;;;;;;;;12.97;67.55;101885.16;5023650;27;119770;-75
2022/10/11 06:36:54;;;;;;;;;;;;;;;13.06;67.91;101872.31;5026173;27;119696;-75
2022/10/11 06:39:51;;;;;;;;;;;;;;;13.19;68.23;101870.34;5021052;27;120319;-75
2022/10/11 06:42:47;;;;;;;;;;;;;;;13.29;68.13;101865.75;5083715;27;119424;-76
2022/10/11 06:45:38;;;;;;;;;;;;;;;13.40;68.65;101870.94;5028628;27;119682;-75
2022/10/11 06:48:32;;;;;;;;;;;;;;;13.49;68.41;101871.81;5023624;27;119578;-75
2022/10/11 06:51:24;;;;;;;;;;;;;;;13.59;68.27;101874.69;5016233;27;119913;-75
2022/10/11 06:54:18;;;;;;;;;;;;;;;13.64;68.13;101882.38;5078086;27;120165;-75
2022/10/11 06:57:12;;;;;;;;;;;;;;;13.68;68.47;101883.03;5034512;27;119855;-75
2022/10/11 07:00:12;;;;;;;;;;;;;;;13.69;67.92;101885.34;5027975;27;120232;-75
2022/10/11 07:03:09;;;;;;;;;;;;;;;13.72;68.08;101889.22;5025040;27;120214;-75
2022/10/11 07:06:02;;;;;;;;;;;;;;;13.77;67.96;101883.94;5021384;27;119672;-75
2022/10/11 07:08:58;;;;;;;;;;;;;;;13.88;68.39;101897.38;5074228;27;119763;-76
2022/10/11 07:11:49;;;;;;;;;;;;;;;13.99;68.41;101900.56;5026024;27;119764;-75
2022/10/11 07:14:43;;;;;;;;;;;;;;;14.11;68.49;101902.50;5018999;27;120205;-75
2022/10/11 07:17:34;;;;;;;;;;;;;;;14.25;68.43;101914.28;5020732;27;120194;-75
2022/10/11 07:20:29;;;;;;;;;;;;;;;14.37;68.48;101921.75;5085652;27;119806;-80
2022/10/11 07:23:23;;;;;;;;;;;;;;;14.45;68.43;101934.16;5080847;27;119854;-78
2022/10/11 07:26:14;;;;;;;;;;;;;;;14.50;68.13;101922.53;5034288;27;119490;-79
2022/10/11 07:29:09;;;;;;;;;;;;;;;14.55;68.01;101921.19;5092422;27;120367;-76
2022/10/11 07:32:07;;;;;;;;;;;;;;;14.58;67.89;101928.56;5019778;27;119489;-76
2022/10/11 07:34:58;;;;;;;;;;;;;;;14.62;67.76;101913.41;5009986;27;120248;-76
2022/10/11 07:37:53;;;;;;;;;;;;;;;14.65;67.70;101917.25;5058990;27;120580;-76
2022/10/11 07:41:11;;;;;;;;;;;;;;;14.69;67.92;101921.47;5018783;27;120291;-76
2022/10/11 07:44:11;;;;;;;;;;;;;;;14.74;68.16;101909.84;5025286;27;121018;-76
2022/10/11 07:47:11;;;;;;;;;;;;;;;14.81;67.67;101913.56;5036497;27;119837;-76
2022/10/11 07:50:07;;;;;;;;;;;;;;;14.87;68.09;101920.81;5075773;27;119370;-76
2022/10/11 07:53:03;;;;;;;;;;;;;;;14.94;67.82;101922.56;5077139;27;119525;-76
2022/10/11 07:56:00;;;;;;;;;;;;;;;14.99;67.88;101930.25;5023779;27;120860;-76
2022/10/11 07:58:52;;;;;;;;;;;;;;;15.00;67.33;101931.81;5024016;27;119759;-76
2022/10/11 08:01:44;;;;;;;;;;;;;;;14.96;67.21;101922.88;5022123;27;120284;-76
2022/10/11 08:04:43;;;;;;;;;;;;;;;14.93;67.51;101932.06;4988731;27;119874;-77
2022/10/11 08:07:33;;;;;;;;;;;;;;;14.97;67.29;101929.94;4999475;27;119984;-76
2022/10/11 08:10:35;;;;;;;;;;;;;;;15.05;67.95;101928.44;5023457;27;119641;-76
2022/10/11 08:13:30;;;;;;;;;;;;;;;15.13;67.71;101932.47;5069675;27;119676;-76
2022/10/11 08:16:21;;;;;;;;;;;;;;;15.23;68.03;101931.31;5029272;27;120094;-76
2022/10/11 08:19:23;;;;;;;;;;;;;;;15.33;67.44;101937.66;5025406;27;119645;-76
2022/10/11 08:22:17;;;;;;;;;;;;;;;15.44;67.53;101942.81;5075072;27;120391;-77
2022/10/11 08:25:14;;;;;;;;;;;;;;;15.54;67.61;101944.38;5027780;27;119622;-76
2022/10/11 08:28:14;;;;;;;;;;;;;;;15.62;67.07;101949.22;5077372;27;119696;-76
2022/10/11 08:31:23;;;;;;;;;;;;;;;15.72;66.64;101954.78;5017822;27;120742;-76
2022/10/11 08:34:22;;;;;;;;;;;;;;;15.83;66.35;101936.53;5013438;27;120038;-76
2022/10/11 08:37:13;;;;;;;;;;;;;;;15.90;65.67;101950.09;5028618;27;120727;-76
2022/10/11 08:40:13;;;;;;;;;;;;;;;15.99;65.39;101934.72;5080207;27;120468;-75
2022/10/11 08:43:13;;;;;;;;;;;;;;;16.04;64.36;101931.34;5079917;27;120338;-76
2022/10/11 08:46:09;;;;;;;;;;;;;;;16.10;63.77;101946.91;5077607;27;119415;-76
2022/10/11 08:49:00;;;;;;;;;;;;;;;16.17;64.11;101952.16;5026533;27;119819;-76
2022/10/11 08:51:59;;;;;;;;;;;;;;;16.25;63.93;101952.63;5026042;27;119915;-76
2022/10/11 08:54:50;;;;;;;;;;;;;;;16.36;64.14;101961.28;5012747;27;119838;-76
2022/10/11 08:57:21;;;;;;;;;;;;;;;16.45;63.60;101963.28;4967887;28;119675;-76
2022/10/11 09:00:01;;;;;;;;;;;;;;;16.44;62.91;101962.50;4969647;28;120536;-76
2022/10/11 09:02:33;;;;;;;;;;;;;;;16.41;62.70;101960.66;4995400;27;119989;-76
2022/10/11 09:05:00;;;;;;;;;;;;;;;16.39;62.59;101960.34;4999020;27;119605;-75
2022/10/11 09:08:06;;;;;;;;;;;;;;;16.39;63.03;101963.13;4898540;28;119966;-76
2022/10/11 09:10:54;;;;;;;;;;;;;;;16.42;63.06;101966.97;4900498;28;119711;-75
2022/10/11 09:13:29;;;;;;;;;;;;;;;16.44;63.07;101961.72;4965913;28;119876;-76
2022/10/11 09:16:14;;;;;;;;;;;;;;;16.51;63.33;101958.66;4971395;28;120561;-75
2022/10/11 09:18:58;;;;;;;;;;;;;;;16.60;63.49;101966.97;4983942;28;119413;-75
2022/10/11 09:21:32;;;;;;;;;;;;;;;16.66;63.36;101973.47;4972905;28;119553;-75
2022/10/11 09:24:16;;;;;;;;;;;;;;;16.72;63.28;101965.31;4984439;28;119751;-75
2022/10/11 09:26:56;;;;;;;;;;;;;;;16.74;62.71;101976.69;4968568;28;119885;-75
2022/10/11 09:29:57;;;;;;;;;;;;;;;16.78;62.84;101980.06;4977935;28;119654;-75
2022/10/11 09:32:23;;;;;;;;;;;;;;;16.80;62.43;101983.19;4962360;28;120693;-75
2022/10/11 09:34:58;;;;;;;;;;;;;;;16.77;62.34;101990.38;4981265;28;119703;-75
2022/10/11 09:37:36;;;;;;;;;;;;;;;16.74;62.14;101987.78;4977254;28;119908;-75
2022/10/11 09:40:02;;;;;;;;;;;;;;;16.76;62.24;101982.53;4980955;28;119871;-74
2022/10/11 09:42:28;;;;;;;;;;;;;;;16.79;62.01;101990.69;4989737;28;120466;-75
2022/10/11 09:44:56;;;;;;;;;;;;;;;16.81;61.50;101993.81;4992394;27;119978;-74
2022/10/11 09:47:23;;;;;;;;;;;;;;;16.84;61.38;101989.34;4977502;28;119588;-74
2022/10/11 09:50:03;;;;;;;;;;;;;;;16.87;61.25;101991.94;4960459;28;119863;-74
2022/10/11 09:52:28;;;;;;;;;;;;;;;16.89;60.84;102002.56;4974946;28;120157;-75
2022/10/11 09:54:55;;;;;;;;;;;;;;;16.91;60.79;101994.56;4955706;28;120302;-75
2022/10/11 09:57:23;;;;;;;;;;;;;;;16.95;60.62;102003.47;4976174;28;119711;-75
2022/10/11 10:00:00;;;;;;;;;;;;;;;16.98;60.51;102002.56;4975049;28;119700;-76
2022/10/11 10:02:27;;;;;;;;;;;;;;;17.02;60.44;102005.94;4982697;28;120042;-76
2022/10/11 10:04:53;;;;;;;;;;;;;;;17.06;59.90;102006.56;4956128;28;120087;-74
2022/10/11 10:07:19;;;;;;;;;;;;;;;17.08;59.17;102000.56;4966299;28;121581;-75
2022/10/11 10:09:45;;;;;;;;;;;;;;;17.08;58.83;102006.88;4965617;28;120832;-75
2022/10/11 10:12:11;;;;;;;;;;;;;;;17.12;58.91;102003.94;4962036;28;120335;-75
2022/10/11 10:14:38;;;;;;;;;;;;;;;17.15;58.65;102005.78;4966515;28;119919;-75
2022/10/11 10:17:05;;;;;;;;;;;;;;;17.21;58.92;102000.38;4964009;28;119737;-74
2022/10/11 10:19:52;;;;;;;;;;;;;;;17.25;58.40;102000.97;4964834;28;119527;-75
2022/10/11 10:22:19;;;;;;;;;;;;;;;17.27;58.14;102006.84;4965731;28;119550;-74
2022/10/11 10:24:46;;;;;;;;;;;;;;;17.29;58.22;102004.38;4968605;28;119912;-75
2022/10/11 10:27:13;;;;;;;;;;;;;;;17.33;57.73;102007.75;4949788;28;120194;-75
2022/10/11 10:29:39;;;;;;;;;;;;;;;17.37;58.05;102003.59;4942771;28;120859;-75
2022/10/11 10:32:13;;;;;;;;;;;;;;;17.42;57.62;102010.50;4975826;28;120899;-76
2022/10/11 10:34:59;;;;;;;;;;;;;;;17.45;58.18;102012.34;4964564;28;119668;-76
2022/10/11 10:37:25;;;;;;;;;;;;;;;17.44;57.38;102013.59;4967479;28;120057;-76
2022/10/11 10:39:59;;;;;;;;;;;;;;;17.42;57.65;102021.59;4929767;28;121723;-76
2022/10/11 10:42:25;;;;;;;;;;;;;;;17.43;57.46;102015.59;4967776;28;120044;-77
2022/10/11 10:44:52;;;;;;;;;;;;;;;17.40;56.73;102024.06;4965725;28;119999;-76
2022/10/11 10:47:36;;;;;;;;;;;;;;;17.32;56.65;102033.97;4949095;28;121958;-76
2022/10/11 10:50:20;;;;;;;;;;;;;;;17.26;56.90;102031.03;4969739;28;119939;-77
2022/10/11 10:53:01;;;;;;;;;;;;;;;17.24;57.11;102039.03;4964770;28;120768;-78
2022/10/11 10:55:36;;;;;;;;;;;;;;;17.25;57.23;102037.81;4958331;28;120287;-77
2022/10/11 10:58:21;;;;;;;;;;;;;;;17.27;57.35;102034.56;4960235;28;119869;-78
2022/10/11 11:00:48;;;;;;;;;;;;;;;17.27;57.31;102037.34;4957576;28;120232;-77
2022/10/11 11:03:19;;;;;;;;;;;;;;;17.26;57.31;102038.56;4952507;28;119884;-77
2022/10/11 11:05:54;;;;;;;;;;;;;;;17.28;57.49;102036.13;4986825;28;119940;-77
2022/10/11 11:08:29;;;;;;;;;;;;;;;17.35;57.34;102033.78;4966320;28;119820;-78
2022/10/11 11:11:21;;;;;;;;;;;;;;;17.37;57.25;102033.34;4974061;28;119413;-78
2022/10/11 11:13:57;;;;;;;;;;;;;;;17.25;57.08;102029.47;4910976;28;120714;-77
2022/10/11 11:16:47;;;;;;;;;;;;;;;17.26;57.11;102042.09;4968622;27;119867;-77
2022/10/11 11:19:15;;;;;;;;;;;;;;;17.23;57.29;102043.03;4971221;28;119483;-77
2022/10/11 11:21:41;;;;;;;;;;;;;;;17.22;57.03;102049.06;4967060;28;119563;-77
2022/10/11 11:24:23;;;;;;;;;;;;;;;17.16;56.58;102048.91;4952686;28;119604;-77
2022/10/11 11:26:51;;;;;;;;;;;;;;;17.10;56.61;102048.75;4969254;28;119800;-75
2022/10/11 11:29:36;;;;;;;;;;;;;;;17.11;56.54;102050.31;4951268;28;120916;-78
2022/10/11 11:32:07;;;;;;;;;;;;;;;17.13;55.95;102050.59;4971618;28;119976;-77
2022/10/11 11:34:42;;;;;;;;;;;;;;;17.18;56.29;102054.75;4952265;28;121076;-77
2022/10/11 11:37:26;;;;;;;;;;;;;;;17.21;55.87;102047.50;4987304;28;119990;-77
2022/10/11 11:39:59;;;;;;;;;;;;;;;17.21;55.52;102055.84;4965678;28;120180;-77
2022/10/11 11:42:33;;;;;;;;;;;;;;;17.19;55.25;102051.53;4969700;28;119865;-78
2022/10/11 11:45:02;;;;;;;;;;;;;;;17.23;55.61;102053.38;4970131;28;119839;-78
2022/10/11 11:47:28;;;;;;;;;;;;;;;17.27;55.64;102043.69;4970012;28;119950;-78
2022/10/11 11:49:58;;;;;;;;;;;;;;;17.26;55.18;102044.88;4970643;28;120617;-79
2022/10/11 11:52:26;;;;;;;;;;;;;;;17.26;55.10;102050.44;4966973;28;119671;-78
2022/10/11 11:54:55;;;;;;;;;;;;;;;17.25;54.78;102054.44;4973371;28;120046;-77
2022/10/11 11:57:37;;;;;;;;;;;;;;;17.27;55.34;102053.97;4966713;28;119640;-77
2022/10/11 12:00:14;;;;;;;;;;;;;;;17.28;55.52;102058.31;4972425;28;119991;-77
2022/10/11 12:02:46;;;;;;;;;;;;;;;17.28;55.23;102052.78;4985636;28;120467;-77
2022/10/11 12:05:13;;;;;;;;;;;;;;;17.28;55.14;102056.31;4970322;28;120028;-78
2022/10/11 12:07:48;;;;;;;;;;;;;;;17.26;55.05;102050.44;4951538;28;119588;-77
2022/10/11 12:10:33;;;;;;;;;;;;;;;17.24;55.34;102055.69;4971156;28;120015;-77
2022/10/11 12:13:16;;;;;;;;;;;;;;;17.21;55.53;102053.81;4952218;28;120078;-78
2022/10/11 12:15:53;;;;;;;;;;;;;;;17.23;55.39;102056.13;4968339;28;119596;-78
2022/10/11 12:18:19;;;;;;;;;;;;;;;17.30;55.47;102041.97;4957922;28;120092;-77
2022/10/11 12:20:45;;;;;;;;;;;;;;;17.35;55.33;102042.13;4968611;28;119821;-77
2022/10/11 12:23:43;;;;;;;;;;;;;;;17.39;55.43;102044.72;4965621;28;119919;-78
2022/10/11 12:26:15;;;;;;;;;;;;;;;17.44;55.09;102050.41;4947133;28;119644;-77
2022/10/11 12:28:40;;;;;;;;;;;;;;;17.51;54.66;102046.56;4954128;28;120134;-76
2022/10/11 12:31:29;;;;;;;;;;;;;;;17.56;54.38;102047.94;4966650;28;121733;-77
2022/10/11 12:34:01;;;;;;;;;;;;;;;17.59;53.90;102052.56;4964223;28;119758;-77
2022/10/11 12:36:27;;;;;;;;;;;;;;;17.61;54.17;102047.31;4951339;28;119918;-77
2022/10/11 12:39:14;;;;;;;;;;;;;;;17.64;54.27;102044.38;4947270;28;121484;-77
2022/10/11 12:41:49;;;;;;;;;;;;;;;17.66;53.96;102043.91;4955149;28;119939;-77
2022/10/11 12:44:25;;;;;;;;;;;;;;;17.66;53.89;102052.22;4950206;28;120250;-77
2022/10/11 12:46:54;;;;;;;;;;;;;;;17.66;54.02;102060.53;4983004;28;119483;-77
2022/10/11 12:49:19;;;;;;;;;;;;;;;17.64;53.77;102061.00;4966175;28;119610;-78
2022/10/11 12:52:08;;;;;;;;;;;;;;;17.60;53.47;102062.41;4951423;28;120134;-78
2022/10/11 12:54:53;;;;;;;;;;;;;;;17.55;53.48;102055.50;4965759;28;120082;-78
2022/10/11 12:57:18;;;;;;;;;;;;;;;17.53;53.76;102054.44;4983414;28;119608;-77
2022/10/11 12:59:44;;;;;;;;;;;;;;;17.52;54.17;102064.75;4949590;28;120837;-78
2022/10/11 13:02:25;;;;;;;;;;;;;;;17.49;54.06;102063.66;4986461;28;119624;-77
2022/10/11 13:04:50;;;;;;;;;;;;;;;17.48;54.32;102067.66;4970339;28;120839;-77
2022/10/11 13:07:22;;;;;;;;;;;;;;;17.47;54.32;102065.34;4952959;28;120101;-78